Time;durP1;ratioP1;P1;durP2;ratioP2;P2;SDS_P1;SDS_P2;PMS_P1;PMS_P2;Temp;Humidity;BMP_temperature;BMP_pressure;BME280_temperature;BME280_humidity;BME280_pressure;Samples;Min_cycle;Max_cycle;Signal;HPM_P1;HPM_P2
2021/03/10 00:05:30;;;;;;;0.70;0.57;;;9.40;61.30;;;;;;20710830;28;20060;-77
2021/03/10 00:15:31;;;;;;;1.08;0.85;;;9.40;61.20;;;;;;20710214;28;20041;-76
2021/03/10 00:25:31;;;;;;;1.80;0.38;;;9.40;61.30;;;;;;20742176;28;20033;-76
2021/03/10 00:35:32;;;;;;;2.85;1.20;;;9.40;61.30;;;;;;20743083;28;20304;-76
2021/03/10 00:45:32;;;;;;;1.00;0.90;;;9.40;61.30;;;;;;20742009;28;20064;-77
2021/03/10 00:55:33;;;;;;;0.65;0.55;;;9.40;61.30;;;;;;20747390;28;20044;-76
2021/03/10 01:05:33;;;;;;;0.98;0.45;;;9.40;61.20;;;;;;20724264;28;20100;-76
2021/03/10 01:15:34;;;;;;;1.35;0.80;;;9.40;61.20;;;;;;20722650;28;20124;-76
2021/03/10 01:25:35;;;;;;;1.73;0.80;;;9.40;61.20;;;;;;20754842;28;20042;-76
2021/03/10 01:35:35;;;;;;;0.90;0.65;;;9.40;61.30;;;;;;20753440;28;20038;-76
2021/03/10 01:45:36;;;;;;;0.85;0.68;;;9.40;61.30;;;;;;20753102;28;20482;-76
2021/03/10 01:55:37;;;;;;;1.30;0.75;;;9.30;61.20;;;;;;20752673;28;20033;-76
2021/03/10 02:05:37;;;;;;;1.23;0.60;;;9.30;61.30;;;;;;20752870;28;20044;-75
2021/03/10 02:16:03;;;;;;;1.40;0.73;;;9.40;61.30;;;;;;20750575;28;20033;-76
2021/03/10 02:26:31;;;;;;;2.15;0.85;;;9.30;61.30;;;;;;20750006;28;20030;-76
2021/03/10 02:36:32;;;;;;;2.85;0.90;;;9.30;61.30;;;;;;20733859;28;20119;-76
2021/03/10 02:46:33;;;;;;;0.65;0.60;;;9.30;61.30;;;;;;20716307;28;20034;-76
2021/03/10 02:56:34;;;;;;;0.77;0.50;;;9.30;61.30;;;;;;20698918;28;20034;-76
2021/03/10 03:06:34;;;;;;;0.40;0.40;;;9.30;61.30;;;;;;20748022;28;20042;-76
2021/03/10 03:16:35;;;;;;;2.38;1.35;;;9.30;61.30;;;;;;20747209;28;20034;-76
2021/03/10 03:26:36;;;;;;;2.70;0.88;;;9.30;61.30;;;;;;20729233;28;20041;-76
2021/03/10 03:36:36;;;;;;;1.75;0.43;;;9.30;61.30;;;;;;20712134;28;20486;-76
2021/03/10 03:46:37;;;;;;;2.27;1.13;;;9.30;61.30;;;;;;20727680;28;20292;-76
2021/03/10 03:56:38;;;;;;;0.93;0.60;;;9.30;61.30;;;;;;20710898;28;20868;-76
2021/03/10 04:06:44;;;;;;;1.95;1.02;;;9.30;61.40;;;;;;20726474;28;20037;-76
2021/03/10 04:16:45;;;;;;;1.90;0.80;;;9.30;61.30;;;;;;20705660;28;20826;-76
2021/03/10 04:26:46;;;;;;;1.27;0.95;;;9.30;61.30;;;;;;20723102;28;20046;-77
2021/03/10 04:36:47;;;;;;;1.42;0.85;;;9.30;61.50;;;;;;20797378;28;20099;-78
2021/03/10 04:46:47;;;;;;;0.80;0.63;;;9.40;61.80;;;;;;20834744;28;20041;-79
2021/03/10 04:56:48;;;;;;;1.42;0.88;;;9.60;61.70;;;;;;20816384;28;20030;-74
2021/03/10 05:06:48;;;;;;;1.98;0.88;;;9.80;61.50;;;;;;20799808;28;20124;-74
2021/03/10 05:16:49;;;;;;;2.45;0.88;;;9.90;61.10;;;;;;20801741;28;532910;-75
2021/03/10 05:26:50;;;;;;;1.10;1.00;;;10.00;60.60;;;;;;20819819;28;20040;-75
2021/03/10 05:36:50;;;;;;;2.70;0.95;;;9.90;60.10;;;;;;20802630;28;20095;-75
2021/03/10 05:46:54;;;;;;;1.00;0.52;;;9.90;59.80;;;;;;20817856;28;20036;-75
2021/03/10 05:56:54;;;;;;;1.88;0.57;;;9.80;59.70;;;;;;20834160;28;20145;-75
2021/03/10 06:06:55;;;;;;;1.20;0.63;;;9.70;59.70;;;;;;20801954;28;20061;-74
2021/03/10 06:17:09;;;;;;;2.03;1.10;;;9.60;59.80;;;;;;20832433;28;20295;-75
2021/03/10 06:27:10;;;;;;;2.63;1.10;;;9.60;60.00;;;;;;20816921;28;20124;-74
2021/03/10 06:37:11;;;;;;;1.77;1.00;;;9.50;60.10;;;;;;20814382;28;20125;-74
2021/03/10 06:47:12;;;;;;;1.20;0.88;;;9.50;60.30;;;;;;20781080;28;20033;-74
2021/03/10 06:57:14;;;;;;;2.13;1.27;;;9.50;60.40;;;;;;20761929;28;20033;-76
2021/03/10 07:07:15;;;;;;;0.57;0.57;;;9.50;60.70;;;;;;20721570;28;20277;-76
2021/03/10 07:17:17;;;;;;;2.60;0.95;;;9.50;61.00;;;;;;20695447;28;20114;-78
2021/03/10 07:27:19;;;;;;;1.25;0.55;;;9.70;61.10;;;;;;20695309;28;20394;-79
2021/03/10 07:37:19;;;;;;;2.22;0.95;;;9.90;60.90;;;;;;20710035;28;20041;-78
2021/03/10 07:47:20;;;;;;;0.55;0.47;;;9.90;60.30;;;;;;20704022;28;20041;-77
2021/03/10 07:57:20;;;;;;;3.78;1.17;;;9.80;60.00;;;;;;20715512;28;20119;-79
2021/03/10 08:17:38;;;;;;;0.73;0.47;;;9.70;59.90;;;;;;20873459;22;20312;-78
2021/03/10 08:27:42;;;;;;;3.63;1.27;;;9.60;60.00;;;;;;20814197;28;20045;-78
2021/03/10 08:37:43;;;;;;;1.10;0.93;;;9.60;60.20;;;;;;20802087;28;20037;-79
2021/03/10 08:47:43;;;;;;;2.78;0.93;;;9.60;60.30;;;;;;20780706;28;20087;-78
2021/03/10 08:57:44;;;;;;;2.03;1.00;;;9.60;60.50;;;;;;20801647;28;20404;-78
2021/03/10 09:07:46;;;;;;;0.68;0.47;;;9.60;60.60;;;;;;20785196;28;20033;-79
2021/03/10 09:17:47;;;;;;;1.67;1.02;;;9.50;60.60;;;;;;20792463;28;20080;-79
2021/03/10 09:28:07;;;;;;;3.13;1.53;;;9.60;60.80;;;;;;20816517;28;20033;-79
2021/03/10 09:38:12;;;;;;;;;;;9.50;60.80;;;;;;20812926;28;20053;-78
2021/03/10 09:48:15;;;;;;;0.90;0.47;;;9.50;60.80;;;;;;20829256;28;19916;-76
2021/03/10 09:58:22;;;;;;;1.95;0.68;;;9.50;60.80;;;;;;20797629;28;20049;-79
2021/03/10 10:08:25;;;;;;;1.48;0.80;;;9.50;60.80;;;;;;20763877;28;20437;-77
2021/03/10 10:18:26;;;;;;;0.65;0.43;;;9.60;60.90;;;;;;20753567;28;20107;-78
2021/03/10 10:28:30;;;;;;;0.98;0.65;;;9.60;61.00;;;;;;20755660;28;20065;-77
2021/03/10 10:38:30;;;;;;;1.08;0.57;;;9.70;61.10;;;;;;20764302;28;20034;-78
2021/03/10 10:48:35;;;;;;;2.33;0.95;;;9.70;60.90;;;;;;20746943;28;20523;-77
2021/03/10 10:58:42;;;;;;;1.20;0.60;;;9.70;60.80;;;;;;20830268;28;20496;-75
2021/03/10 11:08:43;;;;;;;2.63;0.68;;;9.70;60.70;;;;;;20827642;28;20041;-75
2021/03/10 11:18:44;;;;;;;2.13;1.38;;;9.60;60.70;;;;;;20809077;28;20045;-75
2021/03/10 11:28:47;;;;;;;2.85;1.05;;;9.60;60.70;;;;;;20810436;28;20067;-77
2021/03/10 11:38:49;;;;;;;2.08;1.17;;;9.60;60.80;;;;;;20792642;28;20095;-75
2021/03/10 11:48:51;;;;;;;1.38;0.93;;;9.60;60.80;;;;;;20891035;28;20040;-75
2021/03/10 11:58:51;;;;;;;1.88;1.13;;;9.60;60.90;;;;;;20907661;28;20040;-78
2021/03/10 12:09:03;;;;;;;0.47;0.45;;;9.60;60.90;;;;;;20876934;28;20033;-74
2021/03/10 12:19:04;;;;;;;1.92;0.98;;;9.60;61.00;;;;;;20906422;28;20057;-77
2021/03/10 12:29:05;;;;;;;1.05;0.55;;;9.60;61.00;;;;;;20889307;28;20029;-75
2021/03/10 12:39:05;;;;;;;1.45;0.75;;;9.60;61.00;;;;;;20889242;28;20044;-74
2021/03/10 12:49:06;;;;;;;2.97;0.95;;;9.60;61.00;;;;;;20900932;28;20087;-74
2021/03/10 12:59:07;;;;;;;1.67;0.73;;;9.50;61.00;;;;;;20840669;28;20445;-73
2021/03/10 13:09:07;;;;;;;1.97;1.03;;;9.60;61.00;;;;;;20854919;28;20033;-73
2021/03/10 13:19:08;;;;;;;1.00;0.77;;;9.60;61.10;;;;;;20858774;28;20279;-72
2021/03/10 13:29:09;;;;;;;2.47;1.23;;;9.60;61.10;;;;;;20875512;28;20366;-73
2021/03/10 13:39:09;;;;;;;1.58;0.65;;;9.60;61.10;;;;;;20836350;28;20320;-72
2021/03/10 13:49:10;;;;;;;1.02;0.70;;;9.60;61.10;;;;;;20834727;28;20033;-73
2021/03/10 13:59:10;;;;;;;1.23;0.60;;;9.60;61.10;;;;;;20818391;28;20632;-73
2021/03/10 14:09:11;;;;;;;1.45;0.63;;;9.60;61.10;;;;;;20834146;28;20120;-73
2021/03/10 14:19:11;;;;;;;2.22;0.95;;;9.60;61.10;;;;;;20832364;28;20096;-74
2021/03/10 14:29:13;;;;;;;1.63;0.98;;;9.60;61.10;;;;;;20811411;28;20033;-72
2021/03/10 14:39:14;;;;;;;2.78;0.98;;;9.70;61.10;;;;;;20880655;28;20029;-72
2021/03/10 14:49:15;;;;;;;1.13;0.80;;;9.70;61.10;;;;;;20912550;28;20029;-72
2021/03/10 14:59:15;;;;;;;2.42;1.15;;;9.70;61.00;;;;;;20878624;28;20083;-73
2021/03/10 15:09:16;;;;;;;0.60;0.43;;;9.70;61.00;;;;;;20877825;28;20032;-74
2021/03/10 15:19:16;;;;;;;0.40;0.40;;;9.70;61.00;;;;;;20892653;28;20029;-73
2021/03/10 15:29:17;;;;;;;1.75;1.15;;;9.60;60.90;;;;;;20909378;28;20076;-72
2021/03/10 15:39:18;;;;;;;1.63;0.88;;;9.60;61.00;;;;;;20875664;28;20434;-72
2021/03/10 15:49:18;;;;;;;2.15;0.63;;;9.60;61.10;;;;;;20908181;28;20032;-72
2021/03/10 15:59:19;;;;;;;3.83;1.50;;;9.70;61.20;;;;;;20842510;28;20029;-71
2021/03/10 16:09:20;;;;;;;3.88;1.42;;;9.70;61.20;;;;;;20710377;28;20808;-72
2021/03/10 16:19:20;;;;;;;1.42;0.93;;;9.70;61.30;;;;;;20768328;28;20041;-74
2021/03/10 16:29:21;;;;;;;1.92;0.63;;;9.80;61.70;;;;;;20819810;28;20033;-73
2021/03/10 16:39:22;;;;;;;3.85;1.35;;;9.90;61.60;;;;;;20839960;28;20037;-75
2021/03/10 16:49:22;;;;;;;2.75;1.38;;;10.00;61.60;;;;;;20823000;28;20397;-74
2021/03/10 16:59:23;;;;;;;2.95;1.20;;;10.00;61.50;;;;;;20822245;28;20488;-74
2021/03/10 17:09:24;;;;;;;6.03;1.50;;;10.00;61.70;;;;;;20821917;28;20045;-75
2021/03/10 17:19:26;;;;;;;3.40;1.45;;;10.00;61.70;;;;;;20820577;28;20030;-73
2021/03/10 17:29:26;;;;;;;0.90;0.68;;;9.90;61.80;;;;;;20809805;28;20030;-74
2021/03/10 17:39:27;;;;;;;3.28;0.90;;;9.80;62.00;;;;;;20814123;28;20037;-75
2021/03/10 17:49:27;;;;;;;0.85;0.68;;;9.80;62.20;;;;;;20804579;28;20041;-77
2021/03/10 17:59:28;;;;;;;5.87;1.13;;;9.70;62.20;;;;;;20776917;28;20284;-78
2021/03/10 18:09:29;;;;;;;1.85;0.80;;;9.70;62.40;;;;;;20831443;28;20613;-78
2021/03/10 18:19:29;;;;;;;1.23;0.82;;;9.70;62.40;;;;;;20814869;28;20021;-77
2021/03/10 18:29:30;;;;;;;1.38;0.70;;;9.60;62.40;;;;;;20796247;28;20044;-76
2021/03/10 18:39:30;;;;;;;1.58;0.80;;;9.60;62.40;;;;;;20769324;28;20030;-75
2021/03/10 18:49:31;;;;;;;1.27;1.10;;;9.60;62.50;;;;;;20729979;28;20376;-75
2021/03/10 18:59:32;;;;;;;2.53;1.23;;;9.60;62.50;;;;;;20761209;28;20374;-77
2021/03/10 19:09:33;;;;;;;1.45;0.55;;;9.60;62.50;;;;;;20805129;28;20071;-76
2021/03/10 19:19:34;;;;;;;0.63;0.60;;;9.60;62.50;;;;;;20825642;28;20124;-77
2021/03/10 19:29:35;;;;;;;4.65;0.80;;;9.60;62.60;;;;;;20823874;28;20132;-76
2021/03/10 19:39:35;;;;;;;0.82;0.63;;;9.60;62.60;;;;;;20792418;28;20041;-76
2021/03/10 19:49:36;;;;;;;0.70;0.70;;;9.60;62.60;;;;;;20792592;28;20492;-77
2021/03/10 19:59:37;;;;;;;1.65;1.02;;;9.60;62.60;;;;;;20807757;28;20292;-75
2021/03/10 20:09:37;;;;;;;3.28;0.80;;;9.60;62.70;;;;;;20789090;28;20049;-74
2021/03/10 20:19:38;;;;;;;0.63;0.57;;;9.60;62.60;;;;;;20823374;28;20116;-73
2021/03/10 20:29:38;;;;;;;2.25;1.23;;;9.50;62.50;;;;;;20805839;28;20045;-75
2021/03/10 20:39:39;;;;;;;1.92;1.08;;;9.50;62.60;;;;;;20824713;28;20044;-75
2021/03/10 20:49:39;;;;;;;3.60;1.10;;;9.50;62.60;;;;;;20806398;28;20469;-74
2021/03/10 20:59:40;;;;;;;0.38;0.30;;;9.50;62.60;;;;;;20806209;28;20375;-74
2021/03/10 21:09:41;;;;;;;0.98;0.65;;;9.50;62.50;;;;;;20823467;28;20791;-74
2021/03/10 21:19:41;;;;;;;5.03;1.02;;;9.50;62.60;;;;;;20804804;28;20485;-73
2021/03/10 21:29:42;;;;;;;1.15;1.05;;;9.50;63.20;;;;;;20820465;28;20597;-75
2021/03/10 21:39:42;;;;;;;0.43;0.30;;;9.50;62.60;;;;;;20835959;28;20056;-74
2021/03/10 21:49:43;;;;;;;1.95;0.52;;;9.60;62.70;;;;;;20818483;28;20132;-74
2021/03/10 21:59:43;;;;;;;3.97;0.85;;;9.50;62.60;;;;;;20817933;28;20037;-74
2021/03/10 22:09:44;;;;;;;1.35;1.08;;;9.50;62.60;;;;;;20814592;28;20041;-74
2021/03/10 22:19:45;;;;;;;1.15;0.95;;;9.50;62.60;;;;;;20817076;28;20788;-74
2021/03/10 22:29:45;;;;;;;1.07;0.73;;;9.50;62.60;;;;;;20832889;28;20045;-74
2021/03/10 22:39:46;;;;;;;0.40;0.30;;;9.50;62.60;;;;;;20814966;28;20286;-74
2021/03/10 22:49:46;;;;;;;2.90;1.00;;;9.50;62.70;;;;;;20831422;28;20047;-75
2021/03/10 22:59:47;;;;;;;1.20;0.55;;;9.50;62.70;;;;;;20796878;28;20056;-75
2021/03/10 23:09:48;;;;;;;1.98;0.85;;;9.50;62.60;;;;;;20796234;28;20045;-74
2021/03/10 23:19:48;;;;;;;2.00;0.73;;;9.50;62.70;;;;;;20780358;28;20064;-73
2021/03/10 23:29:49;;;;;;;0.40;0.35;;;9.50;62.70;;;;;;20794405;28;20030;-75
2021/03/10 23:39:50;;;;;;;1.30;0.57;;;9.50;62.60;;;;;;20793563;28;20044;-74
2021/03/10 23:49:50;;;;;;;2.03;0.43;;;9.50;62.60;;;;;;20827270;28;20037;-74
2021/03/10 23:59:51;;;;;;;1.52;0.82;;;9.50;63.30;;;;;;20809039;28;20033;-74
